Time;durP1;ratioP1;P1;durP2;ratioP2;P2;SDS_P1;SDS_P2;PMS_P1;PMS_P2;Temp;Humidity;BMP_temperature;BMP_pressure;BME280_temperature;BME280_humidity;BME280_pressure;Samples;Min_cycle;Max_cycle;Signal;HPM_P1;HPM_P2
2023/04/24 00:00:36;;;;;;;1.17;0.90;;;;;;;10.57;100.00;97298.69;4166371;28;20044;-73
2023/04/24 00:02:39;;;;;;;0.93;0.80;;;;;;;10.60;100.00;97303.44;4161840;28;20030;-73
2023/04/24 00:04:44;;;;;;;2.13;0.98;;;;;;;10.61;100.00;97306.97;4169820;28;20085;-73
2023/04/24 00:06:49;;;;;;;1.55;0.90;;;;;;;10.56;100.00;97310.16;4161873;28;20053;-73
2023/04/24 00:08:49;;;;;;;1.10;1.00;;;;;;;10.51;100.00;97305.06;4161125;28;20044;-74
2023/04/24 00:10:50;;;;;;;0.98;0.88;;;;;;;10.43;100.00;97298.81;4163156;28;20529;-74
2023/04/24 00:12:50;;;;;;;1.15;0.90;;;;;;;10.40;100.00;97305.13;4163653;28;20033;-73
2023/04/24 00:14:51;;;;;;;1.60;0.90;;;;;;;10.46;100.00;97302.75;4161964;28;20442;-73
2023/04/24 00:16:51;;;;;;;1.15;0.90;;;;;;;10.45;100.00;97301.97;4161775;28;20497;-73
2023/04/24 00:18:55;;;;;;;2.42;1.10;;;;;;;10.45;100.00;97301.97;4162704;28;20049;-73
2023/04/24 00:20:56;;;;;;;1.33;1.00;;;;;;;10.38;100.00;97299.25;4162319;28;20352;-73
2023/04/24 00:22:56;;;;;;;3.55;1.10;;;;;;;10.35;100.00;97300.06;4160785;28;20056;-73
2023/04/24 00:24:57;;;;;;;2.15;1.05;;;;;;;10.26;100.00;97297.75;4161974;28;20116;-73
2023/04/24 00:26:57;;;;;;;1.10;1.00;;;;;;;10.20;100.00;97298.53;4168139;28;20047;-73
2023/04/24 00:28:57;;;;;;;3.35;1.10;;;;;;;10.18;100.00;97296.19;4160313;28;20383;-74
2023/04/24 00:30:58;;;;;;;1.58;0.90;;;;;;;10.22;100.00;97290.63;4163612;28;20555;-73
2023/04/24 00:32:58;;;;;;;1.60;1.00;;;;;;;10.32;100.00;97295.31;4160653;28;20048;-73
2023/04/24 00:34:58;;;;;;;1.50;1.38;;;;;;;10.35;100.00;97283.47;4162192;28;20044;-73
2023/04/24 00:36:59;;;;;;;0.98;0.90;;;;;;;10.36;100.00;97283.06;4165645;28;20055;-73
2023/04/24 00:38:59;;;;;;;2.05;1.02;;;;;;;10.36;100.00;97294.13;4161885;28;20042;-73
2023/04/24 00:41:00;;;;;;;1.98;1.08;;;;;;;10.36;100.00;97282.28;4162126;28;20048;-73
2023/04/24 00:43:00;;;;;;;1.85;1.13;;;;;;;10.37;100.00;97290.16;4159274;28;20103;-73
2023/04/24 00:45:02;;;;;;;2.13;1.13;;;;;;;10.33;100.00;97286.63;4161142;28;20378;-73
2023/04/24 00:47:03;;;;;;;1.92;1.08;;;;;;;10.29;100.00;97285.88;4163624;28;20101;-73
2023/04/24 00:49:05;;;;;;;2.33;1.02;;;;;;;10.29;100.00;97274.03;4160777;28;20042;-73
2023/04/24 00:51:06;;;;;;;2.13;1.10;;;;;;;10.36;100.00;97274.75;4162675;28;20052;-73
2023/04/24 00:53:06;;;;;;;2.67;0.98;;;;;;;10.35;100.00;97278.72;4161899;28;20059;-74
2023/04/24 00:55:07;;;;;;;1.95;1.00;;;;;;;10.31;100.00;97283.47;4162127;28;20120;-73
2023/04/24 00:57:08;;;;;;;1.00;0.85;;;;;;;10.29;100.00;97282.31;4159463;28;20143;-73
2023/04/24 00:59:08;;;;;;;1.30;1.17;;;;;;;10.22;100.00;97285.09;4162918;28;20103;-73
2023/04/24 01:01:09;;;;;;;1.73;1.25;;;;;;;10.14;100.00;97284.34;4163200;28;20107;-73
2023/04/24 01:03:10;;;;;;;2.17;1.20;;;;;;;10.15;100.00;97263.81;4161105;28;20127;-73
2023/04/24 01:05:15;;;;;;;1.05;0.85;;;;;;;10.20;100.00;97274.44;4160971;28;20037;-73
2023/04/24 01:07:17;;;;;;;1.23;1.08;;;;;;;10.19;100.00;97280.38;4160638;28;20050;-73
2023/04/24 01:09:18;;;;;;;1.85;1.20;;;;;;;10.12;100.00;97272.91;4161067;28;20053;-73
2023/04/24 01:11:18;;;;;;;1.20;1.10;;;;;;;10.04;100.00;97272.16;4161664;28;20048;-73
2023/04/24 01:13:20;;;;;;;1.40;1.20;;;;;;;10.05;100.00;97272.94;4159981;28;20049;-73
2023/04/24 01:15:21;;;;;;;2.67;1.17;;;;;;;10.02;100.00;97269.03;4160114;28;20124;-73
2023/04/24 01:17:21;;;;;;;1.42;1.10;;;;;;;10.03;100.00;97267.03;4161205;28;20132;-73
2023/04/24 01:19:21;;;;;;;3.83;1.50;;;;;;;9.92;100.00;97258.81;4160964;28;20049;-73
2023/04/24 01:21:27;;;;;;;2.28;1.25;;;;;;;9.83;100.00;97259.25;4159950;28;20420;-73
2023/04/24 01:23:27;;;;;;;1.88;1.45;;;;;;;9.79;100.00;97263.22;4163810;28;20045;-73
2023/04/24 01:25:29;;;;;;;1.60;1.27;;;;;;;9.77;100.00;97258.09;4161742;28;20079;-73
2023/04/24 01:27:30;;;;;;;1.45;1.27;;;;;;;9.79;100.00;97263.22;4160754;28;20052;-73
2023/04/24 01:29:30;;;;;;;1.50;1.10;;;;;;;9.80;100.00;97256.50;4160511;28;20041;-73
2023/04/24 01:31:39;;;;;;;1.23;1.10;;;;;;;9.78;100.00;97261.66;4180913;27;20394;-74
2023/04/24 01:33:41;;;;;;;4.10;1.50;;;;;;;9.71;100.00;97268.00;4171483;28;20496;-73
2023/04/24 01:35:42;;;;;;;1.27;1.17;;;;;;;9.70;100.00;97268.41;4171777;28;20436;-73
2023/04/24 01:37:42;;;;;;;1.52;1.10;;;;;;;9.67;100.00;97266.41;4202548;28;20075;-73
2023/04/24 01:39:43;;;;;;;3.15;1.30;;;;;;;9.63;100.00;97268.44;4171702;28;20036;-73
2023/04/24 01:41:44;;;;;;;1.10;1.00;;;;;;;9.65;100.00;97271.56;4172031;28;20037;-73
2023/04/24 01:43:44;;;;;;;1.45;1.20;;;;;;;9.75;100.00;97271.50;4171551;28;20049;-73
2023/04/24 01:45:45;;;;;;;1.65;1.30;;;;;;;9.81;100.00;97269.91;4172046;28;20049;-73
2023/04/24 01:47:46;;;;;;;1.30;1.20;;;;;;;9.81;100.00;97264.38;4171736;28;20140;-73
2023/04/24 01:49:48;;;;;;;4.85;1.30;;;;;;;9.81;100.00;97258.06;4171892;28;20045;-73
2023/04/24 01:51:48;;;;;;;1.27;1.17;;;;;;;9.79;100.00;97266.00;4171748;28;20038;-73
2023/04/24 01:53:48;;;;;;;2.25;1.40;;;;;;;9.80;100.00;97262.03;4170645;28;20036;-73
2023/04/24 01:55:49;;;;;;;1.77;1.20;;;;;;;9.82;100.00;97248.59;4171609;28;20481;-73
2023/04/24 01:57:51;;;;;;;2.17;1.30;;;;;;;9.83;100.00;97258.47;4171424;28;20094;-73
2023/04/24 01:59:52;;;;;;;2.13;1.40;;;;;;;9.87;100.00;97252.94;4171308;28;20053;-73
2023/04/24 02:01:52;;;;;;;1.33;1.20;;;;;;;9.92;100.00;97255.25;4171406;28;20037;-73
2023/04/24 02:03:52;;;;;;;2.40;1.50;;;;;;;9.88;100.00;97246.22;4170539;28;20291;-73
2023/04/24 02:05:53;;;;;;;1.73;1.40;;;;;;;9.84;100.00;97241.47;4171033;28;20051;-73
2023/04/24 02:07:54;;;;;;;1.50;1.20;;;;;;;9.85;100.00;97239.53;4170144;28;20069;-73
2023/04/24 02:09:55;;;;;;;1.88;1.48;;;;;;;9.78;100.00;97237.59;4171050;28;20124;-73
2023/04/24 02:11:56;;;;;;;2.65;1.67;;;;;;;9.75;100.00;97232.84;4171372;28;20238;-73
2023/04/24 02:13:56;;;;;;;1.25;1.13;;;;;;;9.71;100.00;97234.84;4170602;28;20038;-73
2023/04/24 02:15:58;;;;;;;1.50;1.40;;;;;;;9.69;100.00;97228.94;4170329;28;20076;-73
2023/04/24 02:17:58;;;;;;;1.83;1.63;;;;;;;9.68;100.00;97230.16;4171353;28;20048;-73
2023/04/24 02:19:58;;;;;;;2.35;1.70;;;;;;;9.65;100.00;97233.69;4170172;28;20648;-73
2023/04/24 02:21:59;;;;;;;1.70;1.60;;;;;;;9.65;100.00;97239.22;4170024;28;20224;-73
2023/04/24 02:23:59;;;;;;;2.60;1.50;;;;;;;9.66;100.00;97237.25;4171058;28;20052;-73
2023/04/24 02:26:00;;;;;;;3.15;1.77;;;;;;;9.67;100.00;97230.53;4169200;28;20563;-73
2023/04/24 02:28:00;;;;;;;2.75;1.70;;;;;;;9.74;100.00;97230.50;4171209;28;21333;-73
2023/04/24 02:30:00;;;;;;;2.42;1.70;;;;;;;9.74;100.00;97227.72;4174048;28;20048;-73
2023/04/24 02:32:01;;;;;;;3.05;1.70;;;;;;;9.70;100.00;97236.03;4187928;28;20028;-73
2023/04/24 02:34:01;;;;;;;3.33;2.00;;;;;;;9.65;100.00;97228.16;4186464;28;20147;-73
2023/04/24 02:36:02;;;;;;;2.28;1.80;;;;;;;9.56;100.00;97228.59;4186046;28;20276;-73
2023/04/24 02:38:03;;;;;;;2.88;2.08;;;;;;;9.46;100.00;97231.41;4187849;28;20033;-73
2023/04/24 02:40:05;;;;;;;2.17;1.90;;;;;;;9.39;100.00;97235.00;4186897;28;20074;-73
2023/04/24 02:42:07;;;;;;;3.00;1.90;;;;;;;9.33;100.00;97236.59;4181057;28;20446;-73
2023/04/24 02:44:08;;;;;;;2.17;1.98;;;;;;;9.33;100.00;97233.03;4174748;28;20032;-73
2023/04/24 02:46:08;;;;;;;2.90;2.10;;;;;;;9.29;100.00;97235.81;4176576;28;20029;-73
2023/04/24 02:48:08;;;;;;;2.42;2.03;;;;;;;9.28;100.00;97229.50;4176079;28;20056;-73
2023/04/24 02:50:09;;;;;;;4.60;1.98;;;;;;;9.28;100.00;97228.72;4175814;28;20024;-73
2023/04/24 02:52:10;;;;;;;5.20;2.35;;;;;;;9.40;100.00;97224.72;4176448;28;20033;-73
2023/04/24 02:54:10;;;;;;;2.92;2.35;;;;;;;9.50;100.00;97234.94;4176031;28;20488;-73
2023/04/24 02:56:12;;;;;;;4.00;1.85;;;;;;;9.46;100.00;97231.41;4175707;28;20040;-73
2023/04/24 02:58:12;;;;;;;3.88;2.20;;;;;;;9.42;100.00;97227.88;4176190;28;20033;-73
2023/04/24 03:00:13;;;;;;;3.30;2.20;;;;;;;9.35;100.00;97217.66;4175613;28;20159;-73
2023/04/24 03:02:13;;;;;;;3.65;2.00;;;;;;;9.30;100.00;97212.56;4175190;28;20031;-73
2023/04/24 03:04:15;;;;;;;5.65;2.55;;;;;;;9.27;100.00;97213.34;4175634;28;20033;-73
2023/04/24 03:06:15;;;;;;;2.38;2.13;;;;;;;9.18;100.00;97215.72;4175399;28;20087;-73
2023/04/24 03:08:16;;;;;;;2.20;2.00;;;;;;;9.07;100.00;97215.00;4175467;28;20034;-73
2023/04/24 03:10:16;;;;;;;2.60;2.03;;;;;;;9.04;100.00;97207.50;4174868;28;20041;-73
2023/04/24 03:12:17;;;;;;;3.90;2.28;;;;;;;9.04;100.00;97213.81;4176260;28;20025;-73
2023/04/24 03:14:18;;;;;;;3.05;2.40;;;;;;;9.04;100.00;97213.03;4174414;28;20428;-74
2023/04/24 03:16:18;;;;;;;2.70;2.20;;;;;;;9.00;100.00;97210.28;4174789;28;20445;-73
2023/04/24 03:18:19;;;;;;;3.40;2.42;;;;;;;9.05;100.00;97211.84;4175768;28;20029;-73
2023/04/24 03:20:19;;;;;;;5.03;2.03;;;;;;;9.08;100.00;97219.31;4175689;28;20032;-73
2023/04/24 03:22:20;;;;;;;2.40;1.77;;;;;;;9.06;100.00;97199.63;4175816;28;20025;-73
2023/04/24 03:24:20;;;;;;;4.05;2.50;;;;;;;9.03;100.00;97200.44;4173029;28;20052;-73
2023/04/24 03:26:20;;;;;;;2.63;1.98;;;;;;;9.00;100.00;97208.28;4174582;28;20124;-73
2023/04/24 03:28:21;;;;;;;2.38;2.00;;;;;;;8.97;100.00;97200.81;4174376;28;20091;-73
2023/04/24 03:30:21;;;;;;;2.97;1.80;;;;;;;9.00;100.00;97210.28;4174058;28;20041;-73
2023/04/24 03:32:22;;;;;;;1.65;1.55;;;;;;;8.99;100.00;97214.22;4171128;28;20064;-73
2023/04/24 03:34:22;;;;;;;2.88;1.80;;;;;;;9.02;100.00;97213.44;4171478;28;20048;-73
2023/04/24 03:36:23;;;;;;;2.90;1.90;;;;;;;9.08;100.00;97216.56;4174963;28;20033;-73
2023/04/24 03:38:23;;;;;;;1.90;1.70;;;;;;;9.09;100.00;97213.41;4175622;28;20128;-73
2023/04/24 03:40:23;;;;;;;1.77;1.50;;;;;;;9.12;100.00;97206.31;4175752;28;20045;-73
2023/04/24 03:42:24;;;;;;;2.53;1.80;;;;;;;9.19;100.00;97201.56;4174497;28;20141;-73
2023/04/24 03:44:24;;;;;;;2.47;1.77;;;;;;;9.28;100.00;97198.38;4173322;28;20043;-73
2023/04/24 03:46:24;;;;;;;2.25;1.55;;;;;;;9.27;100.00;97194.03;4174039;28;20074;-73
2023/04/24 03:48:25;;;;;;;3.10;1.80;;;;;;;9.29;100.00;97192.44;4174447;28;20069;-73
2023/04/24 03:50:26;;;;;;;1.40;1.30;;;;;;;9.30;100.00;97190.47;4174764;28;20049;-73
2023/04/24 03:52:26;;;;;;;2.15;1.58;;;;;;;9.34;100.00;97202.28;4173867;28;20428;-73
2023/04/24 03:54:27;;;;;;;1.40;1.20;;;;;;;9.36;100.00;97201.88;4172858;28;20037;-73
2023/04/24 03:56:27;;;;;;;1.40;1.25;;;;;;;9.36;100.00;97202.69;4174221;28;20053;-73
2023/04/24 03:58:27;;;;;;;3.30;1.50;;;;;;;9.37;100.00;97212.53;4172783;28;20441;-73
2023/04/24 04:00:28;;;;;;;2.95;1.50;;;;;;;9.48;100.00;97196.69;4173973;28;20060;-73
2023/04/24 04:02:28;;;;;;;3.17;1.70;;;;;;;9.46;100.00;97198.28;4173244;28;20124;-73
2023/04/24 04:04:28;;;;;;;1.73;1.42;;;;;;;9.47;100.00;97194.34;4173646;28;20065;-73
2023/04/24 04:06:30;;;;;;;1.58;1.30;;;;;;;9.47;100.00;97200.66;4174727;28;20501;-73
2023/04/24 04:08:30;;;;;;;6.30;2.17;;;;;;;9.46;100.00;97199.06;4173713;28;20037;-73
2023/04/24 04:10:31;;;;;;;1.80;1.50;;;;;;;9.44;100.00;97190.41;4172404;28;20303;-73
2023/04/24 04:12:31;;;;;;;4.28;1.83;;;;;;;9.43;100.00;97194.38;4172902;28;20060;-73
2023/04/24 04:14:31;;;;;;;1.73;1.23;;;;;;;9.46;100.00;97212.09;4174382;28;20040;-73
2023/04/24 04:16:32;;;;;;;2.63;1.52;;;;;;;9.46;100.00;97193.56;4172695;28;20164;-71
2023/04/24 04:18:33;;;;;;;2.63;2.00;;;;;;;9.43;100.00;97194.38;4170294;28;20053;-71
2023/04/24 04:20:33;;;;;;;3.10;1.60;;;;;;;9.42;100.00;97191.97;4169780;28;20091;-71
2023/04/24 04:22:33;;;;;;;4.35;2.15;;;;;;;9.38;100.00;97203.06;4168994;28;20369;-71
2023/04/24 04:24:37;;;;;;;1.88;1.65;;;;;;;9.35;100.00;97200.28;4172531;28;20044;-71
2023/04/24 04:26:38;;;;;;;3.35;1.55;;;;;;;9.36;100.00;97201.88;4168274;28;20135;-71
2023/04/24 04:28:39;;;;;;;2.22;1.40;;;;;;;9.38;100.00;97205.03;4171647;28;20400;-71
2023/04/24 04:30:40;;;;;;;2.53;1.50;;;;;;;9.40;100.00;97197.91;4168578;28;20136;-72
2023/04/24 04:32:40;;;;;;;2.40;1.40;;;;;;;9.40;100.00;97200.66;4171123;28;20122;-72
2023/04/24 04:34:40;;;;;;;4.07;1.52;;;;;;;9.42;100.00;97198.28;4170813;28;20069;-71
2023/04/24 04:36:41;;;;;;;2.50;1.52;;;;;;;9.44;100.00;97206.97;4172334;28;20049;-72
2023/04/24 04:38:42;;;;;;;3.65;1.75;;;;;;;9.53;100.00;97201.81;4173733;28;20033;-72
2023/04/24 04:40:43;;;;;;;3.92;1.60;;;;;;;9.55;100.00;97195.88;4172579;28;20045;-71
2023/04/24 04:42:45;;;;;;;3.53;1.83;;;;;;;9.61;100.00;97201.78;4172757;28;20064;-72
2023/04/24 04:44:46;;;;;;;2.17;1.63;;;;;;;9.58;100.00;97193.09;4172615;28;20473;-71
2023/04/24 04:46:47;;;;;;;1.70;1.50;;;;;;;9.60;100.00;97197.41;4171898;28;20094;-72
2023/04/24 04:48:47;;;;;;;2.33;1.48;;;;;;;9.57;100.00;97190.72;4173463;28;20103;-72
2023/04/24 04:50:47;;;;;;;2.00;1.80;;;;;;;9.54;100.00;97186.81;4173308;28;20036;-72
2023/04/24 04:52:48;;;;;;;1.95;1.67;;;;;;;9.48;100.00;97196.69;4170510;28;20124;-71
2023/04/24 04:54:48;;;;;;;2.70;1.73;;;;;;;9.48;100.00;97202.22;4172771;28;20079;-71
2023/04/24 04:56:51;;;;;;;2.20;1.50;;;;;;;9.63;100.00;97213.97;4152449;28;20043;-71
2023/04/24 04:58:52;;;;;;;3.75;2.08;;;;;;;9.64;100.00;97212.00;4198396;28;20549;-71
2023/04/24 05:00:52;;;;;;;3.10;1.52;;;;;;;9.66;100.00;97210.41;4176970;28;20048;-71
2023/04/24 05:02:53;;;;;;;2.28;1.60;;;;;;;9.66;100.00;97213.16;4176043;28;20048;-72
2023/04/24 05:04:53;;;;;;;2.28;1.60;;;;;;;9.65;100.00;97216.34;4179026;28;20388;-71
2023/04/24 05:06:53;;;;;;;1.77;1.50;;;;;;;9.63;100.00;97215.97;4189178;28;20044;-71
2023/04/24 05:08:56;;;;;;;3.08;1.80;;;;;;;9.60;100.00;97220.31;4179368;28;20084;-71
2023/04/24 05:10:57;;;;;;;3.13;1.73;;;;;;;9.65;100.00;97219.88;4187305;28;20431;-71
2023/04/24 05:12:57;;;;;;;1.73;1.55;;;;;;;9.69;100.00;97220.66;4186648;28;20053;-71
2023/04/24 05:14:57;;;;;;;2.67;1.65;;;;;;;9.67;100.00;97231.31;4179170;28;20103;-71
2023/04/24 05:16:58;;;;;;;2.30;1.80;;;;;;;9.68;100.00;97229.31;4184543;28;20543;-72
2023/04/24 05:18:58;;;;;;;2.78;1.67;;;;;;;9.79;100.00;97227.31;4182396;28;20049;-71
2023/04/24 05:20:58;;;;;;;8.57;2.33;;;;;;;9.85;100.00;97209.13;4188952;28;20040;-71
2023/04/24 05:22:59;;;;;;;3.10;1.70;;;;;;;9.94;100.00;97211.44;4186176;28;20056;-71
2023/04/24 05:24:59;;;;;;;1.55;1.45;;;;;;;9.95;100.00;97211.03;4182068;28;20068;-71
2023/04/24 05:26:59;;;;;;;1.67;1.50;;;;;;;9.98;100.00;97220.50;4185753;28;20056;-71
2023/04/24 05:29:00;;;;;;;2.17;1.30;;;;;;;10.00;100.00;97218.09;4186192;28;20084;-71
2023/04/24 05:31:00;;;;;;;1.30;1.20;;;;;;;10.03;100.00;97217.31;4185146;28;20378;-71
2023/04/24 05:33:01;;;;;;;1.42;1.25;;;;;;;9.98;100.00;97223.25;4184728;28;20072;-71
2023/04/24 05:35:01;;;;;;;3.47;1.50;;;;;;;10.01;100.00;97214.97;4179709;28;20047;-71
2023/04/24 05:37:01;;;;;;;1.30;1.20;;;;;;;10.05;100.00;97232.28;4188821;28;20081;-71
2023/04/24 05:39:04;;;;;;;2.03;1.30;;;;;;;10.07;100.00;97216.09;4189008;28;20048;-71
2023/04/24 05:41:05;;;;;;;1.98;1.38;;;;;;;10.04;100.00;97216.91;4189355;28;20492;-72
2023/04/24 05:43:05;;;;;;;2.47;1.20;;;;;;;10.07;100.00;97221.59;4177056;28;20106;-72
2023/04/24 05:45:06;;;;;;;2.28;1.40;;;;;;;10.08;100.00;97219.63;4181585;28;20404;-71
2023/04/24 05:47:07;;;;;;;1.73;1.40;;;;;;;10.05;100.00;97212.94;4182949;28;20120;-71
2023/04/24 05:49:07;;;;;;;1.90;1.45;;;;;;;10.17;100.00;97224.69;4183001;28;20064;-71
2023/04/24 05:51:09;;;;;;;4.93;1.25;;;;;;;10.20;100.00;97219.16;4187606;28;20041;-71
2023/04/24 05:53:10;;;;;;;1.48;1.30;;;;;;;10.31;100.00;97217.13;4187905;28;20457;-71
2023/04/24 05:55:10;;;;;;;1.48;1.23;;;;;;;10.32;100.00;97215.16;4187725;28;20041;-71
2023/04/24 05:57:11;;;;;;;3.22;1.33;;;;;;;10.30;100.00;97223.84;4179568;28;20044;-71
2023/04/24 05:59:11;;;;;;;3.20;2.05;;;;;;;10.32;100.00;97215.94;4183291;28;20534;-72
2023/04/24 06:01:12;;;;;;;3.00;1.80;;;;;;;10.28;100.00;97231.78;4184262;28;20040;-71
2023/04/24 06:03:12;;;;;;;4.68;1.30;;;;;;;10.26;100.00;97236.13;4182837;28;20028;-71
2023/04/24 06:05:12;;;;;;;1.20;1.10;;;;;;;10.26;100.00;97233.34;4187965;28;20067;-71
2023/04/24 06:07:13;;;;;;;2.10;1.20;;;;;;;10.30;100.00;97234.91;4186153;28;20045;-71
2023/04/24 06:09:13;;;;;;;1.05;0.95;;;;;;;10.36;100.00;97240.81;4186131;28;20040;-71
2023/04/24 06:11:14;;;;;;;2.38;1.30;;;;;;;10.41;100.00;97232.84;4189266;28;20040;-71
2023/04/24 06:13:14;;;;;;;0.88;0.88;;;;;;;10.43;100.00;97229.69;4188756;28;20242;-71
2023/04/24 06:15:14;;;;;;;2.03;1.00;;;;;;;10.50;100.00;97226.06;4187926;28;20562;-71
2023/04/24 06:17:15;;;;;;;1.45;1.25;;;;;;;10.51;100.00;97235.91;4186569;28;20048;-71
2023/04/24 06:19:15;;;;;;;2.90;1.10;;;;;;;10.53;100.00;97239.09;4189572;28;20048;-71
2023/04/24 06:21:16;;;;;;;1.70;1.08;;;;;;;10.59;100.00;97248.50;4192535;28;20036;-71
2023/04/24 06:23:16;;;;;;;1.17;1.08;;;;;;;10.59;100.00;97254.03;4179414;28;20048;-71
2023/04/24 06:25:18;;;;;;;4.15;1.20;;;;;;;10.55;100.00;97250.53;4190576;28;20319;-71
2023/04/24 06:27:19;;;;;;;1.20;1.10;;;;;;;10.55;100.00;97265.13;4192683;28;20130;-71
2023/04/24 06:29:19;;;;;;;1.40;1.10;;;;;;;10.49;100.00;97255.69;4190962;28;20450;-72
2023/04/24 06:31:20;;;;;;;1.67;1.13;;;;;;;10.49;100.00;97260.44;4190818;28;20086;-71
2023/04/24 06:33:20;;;;;;;1.95;1.20;;;;;;;10.43;100.00;97256.56;4190523;28;20037;-72
2023/04/24 06:35:21;;;;;;;2.20;1.20;;;;;;;10.39;100.00;97253.81;4192084;28;20057;-71
2023/04/24 06:37:21;;;;;;;2.08;1.88;;;;;;;10.36;100.00;97258.19;4190643;28;20390;-71
2023/04/24 06:39:22;;;;;;;1.38;1.10;;;;;;;10.38;100.00;97255.78;4188008;28;20049;-71
2023/04/24 06:41:22;;;;;;;2.08;1.30;;;;;;;10.35;100.00;97264.13;4187586;28;20033;-71
2023/04/24 06:43:22;;;;;;;1.52;1.25;;;;;;;10.39;100.00;97265.66;4189283;28;20076;-71
2023/04/24 06:45:23;;;;;;;2.45;1.30;;;;;;;10.39;100.00;97268.41;4191231;28;20098;-71
2023/04/24 06:47:23;;;;;;;1.67;1.20;;;;;;;10.38;100.00;97277.13;4191486;28;20266;-71
2023/04/24 06:49:23;;;;;;;2.03;1.50;;;;;;;10.36;100.00;97271.22;4191732;28;20052;-71
2023/04/24 06:51:25;;;;;;;2.17;1.40;;;;;;;10.37;100.00;97279.09;4187008;28;20124;-72
2023/04/24 06:53:25;;;;;;;2.93;1.70;;;;;;;10.35;100.00;97278.72;4190009;28;20086;-71
2023/04/24 06:55:26;;;;;;;2.08;1.40;;;;;;;10.34;100.00;97273.56;4192556;28;20267;-71
2023/04/24 06:57:26;;;;;;;2.10;1.65;;;;;;;10.36;100.00;97276.75;4178910;28;20461;-71
2023/04/24 06:59:28;;;;;;;2.05;1.30;;;;;;;10.31;100.00;97271.63;4191527;28;20044;-71
2023/04/24 07:01:28;;;;;;;3.00;1.63;;;;;;;10.22;100.00;97272.09;4186022;28;20531;-71
2023/04/24 07:03:28;;;;;;;1.52;1.40;;;;;;;10.16;100.00;97268.13;4189887;28;20041;-71
2023/04/24 07:05:29;;;;;;;2.25;1.88;;;;;;;10.16;100.00;97286.69;4191441;28;20040;-71
2023/04/24 07:07:30;;;;;;;2.40;1.80;;;;;;;10.10;100.00;97278.84;4185812;28;20037;-71
2023/04/24 07:09:30;;;;;;;3.72;1.92;;;;;;;10.14;100.00;97285.13;4191063;28;20049;-71
2023/04/24 07:11:31;;;;;;;2.63;1.80;;;;;;;10.20;100.00;97284.72;4190750;28;20080;-71
2023/04/24 07:13:31;;;;;;;3.42;1.70;;;;;;;10.24;100.00;97277.19;4190923;28;20036;-71
2023/04/24 07:15:32;;;;;;;2.63;1.70;;;;;;;10.29;100.00;97285.09;4190653;28;20039;-71
2023/04/24 07:17:32;;;;;;;2.03;1.80;;;;;;;10.41;100.00;97281.81;4190176;28;20488;-71
2023/04/24 07:19:34;;;;;;;3.72;1.60;;;;;;;10.45;100.00;97276.28;4191005;28;20480;-71
2023/04/24 07:21:34;;;;;;;4.33;2.57;;;;;;;10.48;100.00;97273.47;4185994;28;20766;-71
2023/04/24 07:23:35;;;;;;;2.45;1.70;;;;;;;10.52;100.00;97276.25;4190674;28;20045;-71
2023/04/24 07:25:35;;;;;;;6.85;1.80;;;;;;;10.55;100.00;97289.25;4184614;28;20395;-71
2023/04/24 07:27:36;;;;;;;2.50;2.00;;;;;;;10.56;100.00;97279.75;4185951;28;20083;-71
2023/04/24 07:29:36;;;;;;;3.17;1.63;;;;;;;10.62;100.00;97280.91;4190638;28;20420;-71
2023/04/24 07:31:36;;;;;;;3.20;1.42;;;;;;;10.58;100.00;97277.34;4190644;28;20125;-71
2023/04/24 07:33:36;;;;;;;3.38;1.48;;;;;;;10.58;100.00;97277.34;4191250;28;20230;-71
2023/04/24 07:35:37;;;;;;;1.85;1.50;;;;;;;10.59;98.89;97292.75;4190375;28;20062;-71
2023/04/24 07:37:37;;;;;;;2.78;1.63;;;;;;;10.52;98.71;97290.84;4191436;28;20050;-71
2023/04/24 07:39:37;;;;;;;2.05;1.85;;;;;;;10.55;100.00;97283.72;4190696;28;20503;-71
2023/04/24 07:41:38;;;;;;;3.42;2.13;;;;;;;10.49;99.39;97291.63;4184420;28;20587;-71
2023/04/24 07:43:38;;;;;;;4.45;2.10;;;;;;;10.48;100.00;97287.31;4190609;28;20542;-71
2023/04/24 07:45:39;;;;;;;2.80;1.90;;;;;;;10.49;99.39;97288.09;4184881;28;20127;-71
2023/04/24 07:47:43;;;;;;;3.60;2.00;;;;;;;10.55;98.42;97295.56;4186568;28;20044;-71
2023/04/24 07:49:43;;;;;;;2.20;1.58;;;;;;;10.49;97.64;97291.63;4190212;28;20175;-71
2023/04/24 07:51:45;;;;;;;1.90;1.60;;;;;;;10.52;96.36;97287.31;4189868;28;20068;-71
2023/04/24 07:53:45;;;;;;;2.03;1.42;;;;;;;10.66;98.82;97293.47;4190705;28;20045;-71
2023/04/24 07:55:45;;;;;;;2.63;2.00;;;;;;;10.74;96.31;97293.44;4177756;28;20047;-71
2023/04/24 07:57:46;;;;;;;2.08;1.70;;;;;;;10.81;97.24;97290.63;4189723;28;20480;-71
2023/04/24 07:59:46;;;;;;;2.83;1.95;;;;;;;10.90;96.73;97296.47;4184151;28;20040;-71
2023/04/24 08:01:46;;;;;;;4.60;1.52;;;;;;;11.00;94.39;97298.34;4183334;28;20103;-71
2023/04/24 08:03:47;;;;;;;1.92;1.60;;;;;;;11.05;93.50;97294.34;4184120;28;20373;-71
2023/04/24 08:05:47;;;;;;;1.67;1.30;;;;;;;11.04;92.78;97299.09;4183877;28;20048;-71
2023/04/24 08:07:50;;;;;;;2.38;1.73;;;;;;;11.07;93.21;97300.25;4191247;28;20810;-71
2023/04/24 08:09:50;;;;;;;2.13;1.58;;;;;;;10.94;89.62;97305.53;4178404;28;20203;-71
2023/04/24 08:11:50;;;;;;;1.88;1.50;;;;;;;10.81;90.43;97305.22;4189169;28;20132;-71
2023/04/24 08:13:51;;;;;;;2.28;1.70;;;;;;;10.76;90.68;97307.63;4188483;28;20041;-71
2023/04/24 08:15:51;;;;;;;3.00;1.55;;;;;;;10.60;89.52;97317.25;4180583;28;20500;-71
2023/04/24 08:17:51;;;;;;;1.95;1.55;;;;;;;10.61;87.48;97309.75;4189654;28;20378;-71
2023/04/24 08:19:58;;;;;;;2.17;1.70;;;;;;;10.67;86.30;97317.22;4189856;28;20067;-71
2023/04/24 08:21:59;;;;;;;4.15;1.60;;;;;;;10.71;86.19;97316.38;4182035;28;20041;-71
2023/04/24 08:23:59;;;;;;;3.78;1.60;;;;;;;10.60;83.72;97314.50;4186384;28;20493;-71
2023/04/24 08:25:59;;;;;;;1.60;1.50;;;;;;;10.61;83.29;97320.81;4186052;28;20354;-71
2023/04/24 08:28:00;;;;;;;1.83;1.27;;;;;;;10.53;83.42;97314.53;4189957;28;20040;-71
2023/04/24 08:30:00;;;;;;;1.60;1.50;;;;;;;10.71;84.64;97325.47;4184211;28;20052;-71
2023/04/24 08:32:00;;;;;;;2.05;1.58;;;;;;;10.80;84.55;97336.88;4190074;28;20491;-71
2023/04/24 08:34:01;;;;;;;2.55;1.85;;;;;;;10.93;83.99;97329.66;4185771;28;20045;-71
2023/04/24 08:36:05;;;;;;;2.05;1.70;;;;;;;11.16;85.32;97323.50;4189543;28;20040;-71
2023/04/24 08:38:05;;;;;;;1.70;1.60;;;;;;;11.27;83.42;97323.41;4183944;28;20101;-71
2023/04/24 08:40:13;;;;;;;3.83;1.70;;;;;;;11.24;82.61;97324.22;4185039;28;20385;-71
2023/04/24 08:42:15;;;;;;;3.05;1.88;;;;;;;11.26;82.38;97330.16;4183600;28;20071;-71
2023/04/24 08:44:16;;;;;;;3.40;1.77;;;;;;;11.25;81.44;97321.06;4178764;28;20035;-71
2023/04/24 08:46:19;;;;;;;2.25;1.50;;;;;;;11.21;80.21;97333.34;4187152;28;20032;-71
2023/04/24 08:48:21;;;;;;;2.80;1.52;;;;;;;11.13;79.00;97327.09;4181596;28;20529;-71
2023/04/24 08:50:22;;;;;;;5.32;1.85;;;;;;;11.06;80.17;97329.91;4188305;28;20053;-71
2023/04/24 08:52:22;;;;;;;3.08;1.88;;;;;;;10.96;78.60;97336.34;4189582;28;20067;-71
2023/04/24 08:54:24;;;;;;;2.53;1.42;;;;;;;10.92;77.95;97335.56;4188935;28;20036;-71
2023/04/24 08:56:25;;;;;;;2.28;1.70;;;;;;;10.90;77.97;97347.06;4190332;28;20373;-71
2023/04/24 08:58:26;;;;;;;3.72;1.58;;;;;;;10.95;79.37;97340.31;4184325;28;20044;-71
2023/04/24 09:00:27;;;;;;;5.72;1.75;;;;;;;10.87;79.71;97336.03;4188757;28;20082;-71
2023/04/24 09:02:28;;;;;;;2.67;1.73;;;;;;;10.82;79.24;97337.22;4185737;28;20087;-71
2023/04/24 09:04:29;;;;;;;2.90;1.67;;;;;;;10.90;78.96;97337.97;4182831;28;20040;-71
2023/04/24 09:06:32;;;;;;;2.15;1.65;;;;;;;11.00;78.36;97326.00;4189118;28;20047;-71
2023/04/24 09:08:33;;;;;;;3.47;1.85;;;;;;;11.12;81.69;97325.53;4189084;28;20369;-71
2023/04/24 09:10:34;;;;;;;2.92;1.50;;;;;;;11.26;78.31;97310.78;4190082;28;20078;-71
2023/04/24 09:12:35;;;;;;;2.75;1.50;;;;;;;11.38;77.67;97326.06;4188521;28;20358;-71
2023/04/24 09:14:39;;;;;;;2.28;1.50;;;;;;;11.60;76.74;97323.88;4188865;28;20098;-71
2023/04/24 09:16:39;;;;;;;3.00;2.20;;;;;;;11.71;77.99;97317.00;4190274;28;20036;-71
2023/04/24 09:18:40;;;;;;;3.83;2.53;;;;;;;11.85;78.56;97310.53;4188321;28;20120;-71
2023/04/24 09:21:03;;;;;;;3.58;2.28;;;;;;;11.85;78.43;97331.94;4189303;28;20040;-71
2023/04/24 09:23:03;;;;;;;;;;;;;;;11.92;77.01;97318.00;4182624;28;20392;-71
2023/04/24 09:25:06;;;;;;;3.20;1.73;;;;;;;11.96;76.03;97324.25;4189423;28;19955;-71
2023/04/24 09:27:07;;;;;;;1.55;1.35;;;;;;;12.00;76.45;97331.34;4189402;28;20041;-72